Time;durP1;ratioP1;P1;durP2;ratioP2;P2;SDS_P1;SDS_P2;PMS_P1;PMS_P2;Temp;Humidity;BMP_temperature;BMP_pressure;BME280_temperature;BME280_humidity;BME280_pressure;Samples;Min_cycle;Max_cycle;Signal;HPM_P1;HPM_P2
2022/08/10 00:01:03;;;;;;;2.15;1.58;;;;;;;23.69;33.11;97895.31;4908403;28;20217;-75
2022/08/10 00:03:29;;;;;;;2.55;1.90;;;;;;;23.77;33.08;97895.63;4919322;28;20257;-75
2022/08/10 00:05:55;;;;;;;2.53;1.95;;;;;;;23.71;33.13;97892.34;4927471;28;20219;-74
2022/08/10 00:08:23;;;;;;;2.10;1.80;;;;;;;23.63;32.90;97888.63;4943950;28;20842;-75
2022/08/10 00:10:50;;;;;;;1.60;1.50;;;;;;;23.63;32.98;97893.13;4934630;28;20213;-74
2022/08/10 00:13:15;;;;;;;2.30;1.92;;;;;;;23.61;33.12;97890.00;4926418;28;20286;-75
2022/08/10 00:15:40;;;;;;;3.03;1.70;;;;;;;23.53;33.31;97886.25;4927517;28;20299;-75
2022/08/10 00:18:06;;;;;;;1.63;1.50;;;;;;;23.44;33.53;97880.13;4945210;28;20209;-75
2022/08/10 00:20:31;;;;;;;2.20;1.45;;;;;;;23.38;33.56;97888.25;4943479;28;20594;-75
2022/08/10 00:22:58;;;;;;;2.53;1.73;;;;;;;23.37;33.70;97880.59;4922184;28;20189;-75
2022/08/10 00:25:23;;;;;;;3.55;1.70;;;;;;;23.29;33.79;97878.72;4926648;28;20212;-75
2022/08/10 00:27:49;;;;;;;1.67;1.42;;;;;;;23.26;33.82;97876.69;4907034;28;20636;-75
2022/08/10 00:30:14;;;;;;;3.60;1.48;;;;;;;23.26;33.76;97880.13;4925528;28;20214;-75
2022/08/10 00:32:39;;;;;;;2.88;1.80;;;;;;;23.21;34.09;97877.59;4913063;28;20289;-75
2022/08/10 00:35:05;;;;;;;4.03;1.77;;;;;;;23.13;33.93;97879.16;4927305;28;20199;-75
2022/08/10 00:37:30;;;;;;;3.40;1.88;;;;;;;23.05;34.12;97879.09;4942052;28;20181;-74
2022/08/10 00:39:56;;;;;;;2.95;1.65;;;;;;;22.98;34.26;97876.91;4916288;28;20585;-75
2022/08/10 00:42:21;;;;;;;2.53;1.80;;;;;;;22.97;34.31;97870.78;4930835;28;20359;-74
2022/08/10 00:44:52;;;;;;;1.77;1.52;;;;;;;22.98;34.64;97880.34;4933493;28;20264;-75
2022/08/10 00:47:18;;;;;;;2.47;1.80;;;;;;;22.92;34.46;97878.13;4907632;28;20792;-75
2022/08/10 00:49:44;;;;;;;2.58;1.83;;;;;;;22.85;34.66;97881.22;4907394;28;20294;-75
2022/08/10 00:52:12;;;;;;;2.83;1.73;;;;;;;22.79;34.29;97880.59;4917433;28;20281;-75
2022/08/10 00:54:37;;;;;;;1.95;1.77;;;;;;;22.80;34.43;97876.84;4946374;28;20199;-75
2022/08/10 00:57:04;;;;;;;2.53;1.60;;;;;;;22.77;34.46;97874.00;4930293;28;20633;-75
2022/08/10 00:59:30;;;;;;;2.85;1.65;;;;;;;22.74;34.61;97871.97;4937412;28;20103;-75
2022/08/10 01:01:55;;;;;;;2.38;1.70;;;;;;;22.66;35.00;97870.09;4929045;28;20189;-74
2022/08/10 01:04:21;;;;;;;2.67;1.42;;;;;;;22.55;34.75;97870.34;4930218;28;20232;-74
2022/08/10 01:07:08;;;;;;;2.00;1.75;;;;;;;22.44;35.00;97872.47;4930326;28;20283;-74
2022/08/10 01:09:42;;;;;;;1.80;1.58;;;;;;;22.49;35.08;97871.56;4946610;28;20237;-74
2022/08/10 01:12:14;;;;;;;2.70;1.85;;;;;;;22.31;35.39;97869.91;4930662;28;20248;-74
2022/08/10 01:15:10;;;;;;;2.47;2.00;;;;;;;22.24;35.48;97863.13;4946500;28;20653;-74
2022/08/10 01:17:47;;;;;;;2.42;1.70;;;;;;;22.26;35.31;97871.56;4946482;28;20669;-75
2022/08/10 01:20:30;;;;;;;2.20;1.38;;;;;;;22.25;35.32;97877.19;4912608;28;20249;-74
2022/08/10 01:23:20;;;;;;;1.98;1.50;;;;;;;22.24;35.52;97878.25;4930079;28;20262;-74
2022/08/10 01:25:48;;;;;;;2.55;1.60;;;;;;;22.29;35.11;97877.38;4930177;28;20196;-75
2022/08/10 01:28:27;;;;;;;2.40;1.83;;;;;;;22.13;35.46;97876.94;4928591;28;20236;-74
2022/08/10 01:30:55;;;;;;;1.73;1.63;;;;;;;22.30;35.16;97874.44;4946205;28;20189;-75
2022/08/10 01:33:50;;;;;;;2.95;1.65;;;;;;;22.15;35.58;97880.09;4930945;28;20179;-74
2022/08/10 01:36:33;;;;;;;5.70;1.92;;;;;;;22.14;35.34;97879.31;4913259;28;20758;-75
2022/08/10 01:39:02;;;;;;;2.47;1.60;;;;;;;22.20;35.16;97877.31;4914745;28;20220;-74
2022/08/10 01:41:30;;;;;;;5.00;2.00;;;;;;;22.18;35.22;97868.88;4941276;28;20158;-75
2022/08/10 01:44:03;;;;;;;1.73;1.63;;;;;;;22.06;35.66;97872.06;4927655;28;20281;-74
2022/08/10 01:46:30;;;;;;;2.53;1.70;;;;;;;22.11;35.66;97871.16;4911068;28;20201;-75
2022/08/10 01:48:58;;;;;;;2.10;1.70;;;;;;;22.10;35.68;97873.03;4910061;28;20164;-74
2022/08/10 01:51:39;;;;;;;5.20;2.28;;;;;;;22.00;35.76;97886.53;4928203;28;20307;-75
2022/08/10 01:54:08;;;;;;;2.63;1.58;;;;;;;22.07;35.61;97876.28;4930115;28;20244;-74
2022/08/10 01:56:37;;;;;;;2.03;1.83;;;;;;;22.04;35.67;97879.56;4914023;28;20166;-75
2022/08/10 01:59:06;;;;;;;2.35;1.70;;;;;;;22.03;35.81;97877.97;4914653;28;20163;-74
2022/08/10 02:01:41;;;;;;;2.17;1.60;;;;;;;21.94;35.80;97871.84;4914103;28;20350;-74
2022/08/10 02:04:09;;;;;;;3.25;1.88;;;;;;;22.03;35.74;97878.75;4930224;28;20371;-75
2022/08/10 02:06:39;;;;;;;2.55;1.75;;;;;;;22.01;35.62;97877.50;4913224;28;20178;-75
2022/08/10 02:09:06;;;;;;;2.45;1.85;;;;;;;22.00;35.64;97882.03;4929672;28;20247;-75
2022/08/10 02:11:31;;;;;;;1.98;1.60;;;;;;;22.04;35.62;97882.97;4912480;28;20371;-74
2022/08/10 02:13:57;;;;;;;3.33;1.67;;;;;;;22.01;35.75;97880.16;4929050;28;20717;-75
2022/08/10 02:16:24;;;;;;;2.20;1.80;;;;;;;21.94;36.00;97885.09;4913419;28;20197;-75
2022/08/10 02:18:51;;;;;;;2.50;1.75;;;;;;;21.85;36.06;97883.16;4929804;28;20209;-75
2022/08/10 02:21:17;;;;;;;1.92;1.60;;;;;;;21.80;36.44;97891.22;4938201;28;20284;-75
2022/08/10 02:23:43;;;;;;;1.67;1.58;;;;;;;21.74;36.77;97881.81;4936115;28;20160;-75
2022/08/10 02:26:10;;;;;;;2.65;1.65;;;;;;;21.65;36.50;97884.38;4910381;28;20218;-75
2022/08/10 02:28:37;;;;;;;2.20;2.00;;;;;;;21.64;36.82;97882.03;4909809;28;20656;-74
2022/08/10 02:31:08;;;;;;;2.70;1.90;;;;;;;21.61;36.58;97885.28;4921834;28;20446;-75
2022/08/10 02:33:34;;;;;;;2.65;1.67;;;;;;;21.55;36.91;97878.53;4928881;28;20608;-75
2022/08/10 02:36:02;;;;;;;2.53;1.75;;;;;;;21.48;36.87;97885.03;4929667;28;20673;-75
2022/08/10 02:38:33;;;;;;;2.13;1.90;;;;;;;21.37;37.15;97882.84;4929461;28;20112;-75
2022/08/10 02:41:08;;;;;;;3.22;1.80;;;;;;;21.33;37.36;97886.13;4928508;28;20170;-74
2022/08/10 02:43:45;;;;;;;1.63;1.50;;;;;;;21.29;37.19;97879.84;4912553;28;20348;-74
2022/08/10 02:46:13;;;;;;;1.92;1.83;;;;;;;21.23;37.52;97888.16;4909825;28;20214;-74
2022/08/10 02:48:43;;;;;;;2.90;1.90;;;;;;;21.11;38.00;97888.66;4877210;28;20344;-74
2022/08/10 02:51:19;;;;;;;3.40;1.95;;;;;;;21.03;38.06;97890.16;4905457;28;20206;-75
2022/08/10 02:53:48;;;;;;;3.97;1.90;;;;;;;20.97;38.42;97896.63;4908762;28;20278;-75
2022/08/10 02:57:05;;;;;;;2.95;2.00;;;;;;;20.87;38.54;97894.16;4928399;28;20354;-75
2022/08/10 02:59:33;;;;;;;2.20;2.00;;;;;;;20.93;38.26;97890.34;4859282;28;20195;-75
2022/08/10 03:02:02;;;;;;;2.05;1.85;;;;;;;20.93;37.99;97893.78;4928613;28;20311;-75
2022/08/10 03:04:32;;;;;;;2.17;1.75;;;;;;;20.95;37.97;97894.25;4928124;28;20643;-75
2022/08/10 03:07:01;;;;;;;3.30;1.83;;;;;;;20.94;38.04;97892.72;4928618;28;20232;-74
2022/08/10 03:09:28;;;;;;;3.08;1.60;;;;;;;20.98;38.10;97890.25;4928416;28;20632;-75
2022/08/10 03:11:54;;;;;;;4.60;2.05;;;;;;;20.96;38.18;97889.78;4911457;28;20197;-75
2022/08/10 03:14:20;;;;;;;2.35;1.80;;;;;;;20.86;38.47;97893.41;4926870;28;20197;-75
2022/08/10 03:16:46;;;;;;;2.97;1.83;;;;;;;20.87;38.35;97886.22;4928876;28;20291;-75
2022/08/10 03:19:12;;;;;;;2.28;1.83;;;;;;;20.85;38.54;97888.38;4912320;28;20280;-74
2022/08/10 03:21:38;;;;;;;1.90;1.80;;;;;;;20.79;38.59;97889.59;4938327;28;20186;-77
2022/08/10 03:24:04;;;;;;;2.58;2.17;;;;;;;20.69;39.20;97887.91;4931652;28;20144;-77
2022/08/10 03:26:31;;;;;;;2.65;1.88;;;;;;;20.59;39.08;97897.53;4933016;28;20291;-77
2022/08/10 03:28:57;;;;;;;1.90;1.80;;;;;;;20.61;39.31;97899.91;4913664;28;20224;-77
2022/08/10 03:31:25;;;;;;;2.20;1.63;;;;;;;20.51;39.48;97910.66;4907696;28;20246;-77
2022/08/10 03:33:51;;;;;;;3.45;1.85;;;;;;;20.46;39.59;97900.16;4911703;28;20273;-77
2022/08/10 03:36:17;;;;;;;1.88;1.77;;;;;;;20.44;39.60;97897.03;4928770;28;20299;-77
2022/08/10 03:38:44;;;;;;;3.03;1.92;;;;;;;20.41;39.76;97903.69;4928427;28;20594;-76
2022/08/10 03:41:11;;;;;;;2.92;1.70;;;;;;;20.29;40.06;97904.16;4917702;28;20368;-77
2022/08/10 03:43:38;;;;;;;2.80;1.90;;;;;;;20.23;40.12;97894.72;4925166;28;20202;-77
2022/08/10 03:46:07;;;;;;;2.38;1.67;;;;;;;20.16;40.45;97902.25;4876739;28;20208;-77
2022/08/10 03:48:32;;;;;;;2.05;1.92;;;;;;;20.18;40.51;97897.44;4924615;28;20266;-77
2022/08/10 03:50:58;;;;;;;1.90;1.60;;;;;;;20.08;40.66;97902.91;4921092;28;20363;-77
2022/08/10 03:53:24;;;;;;;2.50;1.92;;;;;;;20.10;40.68;97903.38;4915134;28;20256;-77
2022/08/10 03:55:50;;;;;;;2.13;1.92;;;;;;;20.01;40.83;97909.34;4927072;28;20192;-77
2022/08/10 03:58:15;;;;;;;2.08;1.77;;;;;;;19.94;40.88;97908.91;4927834;28;20245;-77
2022/08/10 04:00:42;;;;;;;3.45;1.85;;;;;;;19.88;41.25;97915.34;4920810;28;20267;-77
2022/08/10 04:03:07;;;;;;;3.38;1.98;;;;;;;19.90;41.13;97915.06;4919527;28;20272;-77
2022/08/10 04:05:33;;;;;;;2.08;1.80;;;;;;;19.89;41.16;97916.91;4945064;28;20291;-77
2022/08/10 04:08:00;;;;;;;3.63;2.15;;;;;;;19.88;41.01;97910.06;4912097;28;20583;-77
2022/08/10 04:10:26;;;;;;;3.63;2.17;;;;;;;19.92;40.94;97913.69;4927552;28;20213;-77
2022/08/10 04:12:52;;;;;;;2.85;1.98;;;;;;;19.87;41.14;97919.06;4945235;28;20154;-76
2022/08/10 04:15:17;;;;;;;2.53;2.00;;;;;;;19.85;41.41;97913.28;4895689;28;20205;-77
2022/08/10 04:17:43;;;;;;;2.35;1.95;;;;;;;19.86;41.32;97917.50;4945708;28;20158;-77
2022/08/10 04:20:16;;;;;;;1.90;1.80;;;;;;;19.74;41.48;97922.38;4911660;28;20243;-77
2022/08/10 04:22:42;;;;;;;2.45;2.22;;;;;;;19.83;41.27;97923.34;4941657;28;20318;-77
2022/08/10 04:25:09;;;;;;;2.20;1.92;;;;;;;19.80;41.44;97926.56;4911129;28;20383;-77
2022/08/10 04:27:35;;;;;;;2.67;2.17;;;;;;;19.88;41.10;97930.41;4928070;28;20201;-76
2022/08/10 04:30:00;;;;;;;2.63;1.90;;;;;;;19.88;41.29;97925.94;4899204;28;20170;-77
2022/08/10 04:32:27;;;;;;;2.42;1.90;;;;;;;19.89;41.00;97932.75;4913492;28;20387;-77
2022/08/10 04:34:53;;;;;;;3.70;2.30;;;;;;;19.96;41.15;97922.66;4898619;28;20287;-77
2022/08/10 04:37:20;;;;;;;3.72;1.83;;;;;;;19.98;41.01;97931.06;4915468;28;20451;-77
2022/08/10 04:39:45;;;;;;;2.70;1.80;;;;;;;20.06;40.83;97920.91;4930993;28;20213;-76
2022/08/10 04:42:10;;;;;;;2.75;1.75;;;;;;;20.10;40.65;97921.91;4915467;28;20635;-77
2022/08/10 04:44:36;;;;;;;2.42;2.00;;;;;;;20.12;40.46;97923.19;4927244;28;20217;-77
2022/08/10 04:47:02;;;;;;;2.63;2.00;;;;;;;20.17;40.57;97917.03;4949206;28;20240;-77
2022/08/10 04:49:27;;;;;;;2.13;1.90;;;;;;;20.17;40.71;97922.34;4914788;28;20197;-76
2022/08/10 04:51:53;;;;;;;2.85;2.38;;;;;;;20.17;40.61;97917.03;4930457;28;20211;-76
2022/08/10 04:54:18;;;;;;;2.88;2.10;;;;;;;20.22;40.59;97919.63;4913825;28;20291;-76
2022/08/10 04:56:43;;;;;;;3.90;1.80;;;;;;;20.26;40.61;97915.31;4930748;28;20746;-76
2022/08/10 04:59:10;;;;;;;2.85;1.95;;;;;;;20.28;40.50;97915.78;4932266;28;20191;-76
2022/08/10 05:01:37;;;;;;;2.80;2.22;;;;;;;20.32;40.62;97922.09;4950671;28;20107;-76
2022/08/10 05:04:03;;;;;;;3.28;1.90;;;;;;;20.29;40.72;97914.72;4914059;28;20280;-76
2022/08/10 05:06:28;;;;;;;2.83;2.03;;;;;;;20.32;40.69;97914.16;4931559;28;20717;-76
2022/08/10 05:08:53;;;;;;;3.28;2.17;;;;;;;20.36;40.71;97911.72;4898965;28;20651;-76
2022/08/10 05:11:19;;;;;;;2.38;2.17;;;;;;;20.37;40.37;97905.34;4915072;28;20624;-76
2022/08/10 05:13:44;;;;;;;3.55;1.90;;;;;;;20.36;40.67;97914.38;4929823;28;20623;-76
2022/08/10 05:16:10;;;;;;;3.28;1.92;;;;;;;20.42;40.83;97915.06;4931295;28;20679;-76
2022/08/10 05:18:35;;;;;;;2.83;2.25;;;;;;;20.52;40.72;97917.53;4931067;28;20197;-76
2022/08/10 05:21:01;;;;;;;2.22;1.90;;;;;;;20.60;40.42;97922.16;4914864;28;20188;-76
2022/08/10 05:23:26;;;;;;;2.67;2.13;;;;;;;20.62;40.69;97924.50;4929833;28;20291;-76
2022/08/10 05:25:51;;;;;;;2.33;1.80;;;;;;;20.68;40.41;97921.53;4948644;28;20213;-76
2022/08/10 05:28:17;;;;;;;2.15;1.95;;;;;;;20.68;40.44;97924.16;4914991;28;20192;-76
2022/08/10 05:30:42;;;;;;;2.92;1.90;;;;;;;20.68;40.45;97923.38;4929289;28;20654;-76
2022/08/10 05:33:08;;;;;;;2.63;2.08;;;;;;;20.73;40.45;97925.91;4915013;28;20455;-76
2022/08/10 05:35:33;;;;;;;3.72;2.20;;;;;;;20.79;40.24;97931.94;4930189;28;20320;-76
2022/08/10 05:37:59;;;;;;;2.75;2.10;;;;;;;20.87;40.37;97931.22;4914625;28;20185;-76
2022/08/10 05:40:26;;;;;;;2.30;1.75;;;;;;;20.88;40.38;97933.59;4913478;28;20209;-76
2022/08/10 05:42:51;;;;;;;2.20;2.00;;;;;;;20.92;40.35;97931.13;4947666;28;20170;-76
2022/08/10 05:45:23;;;;;;;2.42;1.98;;;;;;;20.87;40.04;97939.16;4910719;28;20669;-76
2022/08/10 05:47:49;;;;;;;6.32;2.15;;;;;;;21.02;39.93;97936.25;4894923;28;20163;-76
2022/08/10 05:50:15;;;;;;;2.55;2.00;;;;;;;21.17;39.54;97937.03;4894551;28;20693;-76
2022/08/10 05:52:41;;;;;;;2.55;2.00;;;;;;;21.31;39.03;97937.81;4895213;28;20559;-76
2022/08/10 05:55:07;;;;;;;2.30;2.00;;;;;;;21.42;38.97;97943.69;4907295;28;20185;-76
2022/08/10 05:57:35;;;;;;;3.00;1.90;;;;;;;21.54;38.85;97951.16;4930321;28;20761;-76
2022/08/10 06:00:07;;;;;;;2.15;1.88;;;;;;;21.70;38.59;97945.25;4898134;28;20216;-76
2022/08/10 06:02:35;;;;;;;2.80;1.95;;;;;;;21.88;38.13;97940.88;4898284;28;20288;-76
2022/08/10 06:05:04;;;;;;;4.80;2.65;;;;;;;21.93;38.06;97936.53;4913055;28;20624;-76
2022/08/10 06:07:30;;;;;;;2.80;2.25;;;;;;;22.00;37.73;97945.66;4948531;28;20189;-76
2022/08/10 06:09:56;;;;;;;2.55;1.90;;;;;;;22.10;37.84;97947.28;4897199;28;20210;-76
2022/08/10 06:12:22;;;;;;;3.25;1.80;;;;;;;21.97;37.52;97948.09;4913592;28;20246;-76
2022/08/10 06:15:01;;;;;;;2.67;2.00;;;;;;;22.08;37.53;97944.16;4929375;28;20219;-76
2022/08/10 06:17:28;;;;;;;2.75;1.73;;;;;;;22.08;37.41;97952.09;4921698;28;20271;-76
2022/08/10 06:19:57;;;;;;;2.80;2.05;;;;;;;22.31;37.49;97952.13;4923914;28;20192;-76
2022/08/10 06:22:25;;;;;;;2.28;2.05;;;;;;;22.38;37.28;97963.09;4914821;28;20309;-76
2022/08/10 06:24:50;;;;;;;2.17;1.95;;;;;;;22.40;36.93;97960.97;4910810;28;20717;-76
2022/08/10 06:27:16;;;;;;;2.67;1.80;;;;;;;22.43;36.82;97955.03;4897620;28;20300;-75
2022/08/10 06:29:42;;;;;;;3.67;1.90;;;;;;;22.66;36.51;97955.03;4929427;28;20170;-76
2022/08/10 06:32:09;;;;;;;2.42;2.10;;;;;;;22.73;36.19;97960.69;4911958;28;20208;-76
2022/08/10 06:34:38;;;;;;;4.65;1.63;;;;;;;22.68;36.27;97950.19;4907006;28;20233;-76
2022/08/10 06:37:05;;;;;;;3.80;2.20;;;;;;;22.90;36.37;97952.03;4923534;28;20666;-76
2022/08/10 06:39:31;;;;;;;2.65;1.98;;;;;;;23.11;36.03;97952.28;4937806;28;20717;-76
2022/08/10 06:42:20;;;;;;;2.92;1.90;;;;;;;22.99;36.20;97956.25;4922499;28;20233;-76
2022/08/10 06:45:02;;;;;;;2.25;1.83;;;;;;;23.24;35.79;97948.72;4916249;28;20658;-76
2022/08/10 06:47:36;;;;;;;3.58;2.03;;;;;;;23.45;35.46;97948.94;4948746;28;20246;-76
2022/08/10 06:50:06;;;;;;;1.95;1.80;;;;;;;23.62;35.24;97950.84;4932221;28;20333;-74
2022/08/10 06:52:32;;;;;;;3.40;1.42;;;;;;;23.98;35.33;97947.16;4908257;28;20233;-74
2022/08/10 06:54:59;;;;;;;2.38;1.98;;;;;;;24.11;35.23;97948.88;4928759;28;20761;-75
2022/08/10 06:57:26;;;;;;;3.88;2.17;;;;;;;24.13;34.93;97948.56;4913481;28;20584;-76
2022/08/10 06:59:53;;;;;;;4.88;2.08;;;;;;;24.11;35.72;97950.72;4897334;28;20651;-74
2022/08/10 07:02:26;;;;;;;1.77;1.67;;;;;;;24.37;35.13;97955.25;4896775;28;20272;-74
2022/08/10 07:04:55;;;;;;;2.90;1.95;;;;;;;24.33;34.46;97949.78;4932544;28;20607;-74
2022/08/10 07:07:26;;;;;;;3.10;2.05;;;;;;;24.65;34.97;97948.47;4929099;28;20253;-74
2022/08/10 07:09:52;;;;;;;2.00;1.70;;;;;;;25.05;34.31;97947.41;4912774;28;20205;-74
2022/08/10 07:12:20;;;;;;;3.40;2.20;;;;;;;25.26;33.40;97960.84;4913347;28;20155;-74
2022/08/10 07:14:46;;;;;;;4.35;2.00;;;;;;;25.42;33.13;97958.38;4924550;28;20272;-74
2022/08/10 07:17:15;;;;;;;4.47;2.00;;;;;;;25.64;33.01;97951.19;4939040;28;20181;-74
2022/08/10 07:19:41;;;;;;;4.35;1.90;;;;;;;26.09;32.82;97961.25;4938676;28;20150;-74
2022/08/10 07:22:07;;;;;;;3.55;2.47;;;;;;;26.34;32.25;97954.88;4938610;28;20619;-74
2022/08/10 07:24:34;;;;;;;2.00;1.80;;;;;;;26.41;32.21;97956.22;4921116;28;20409;-74
2022/08/10 07:26:59;;;;;;;3.75;1.67;;;;;;;26.63;31.69;97953.22;4948504;28;20173;-74
2022/08/10 07:29:29;;;;;;;2.28;2.08;;;;;;;26.75;31.74;97957.00;4931425;28;20201;-74
2022/08/10 07:31:56;;;;;;;2.00;1.75;;;;;;;26.83;30.95;97954.22;4910401;28;20257;-74
2022/08/10 07:34:22;;;;;;;2.08;1.58;;;;;;;27.09;30.44;97959.28;4893373;28;20280;-74
2022/08/10 07:36:50;;;;;;;2.10;1.63;;;;;;;27.39;30.09;97959.06;4909327;28;20278;-74
2022/08/10 07:39:16;;;;;;;1.70;1.60;;;;;;;27.76;29.90;97956.34;4912509;28;20178;-74
2022/08/10 07:41:43;;;;;;;1.83;1.50;;;;;;;27.61;29.34;97954.38;4892703;28;20291;-74
2022/08/10 07:44:11;;;;;;;3.08;1.92;;;;;;;27.93;29.13;97954.53;4909609;28;20175;-74
2022/08/10 07:46:40;;;;;;;1.73;1.60;;;;;;;27.99;29.28;97959.28;4927212;28;20693;-74
2022/08/10 07:49:08;;;;;;;1.77;1.67;;;;;;;27.58;29.88;97963.06;4893165;28;20194;-74
2022/08/10 07:51:34;;;;;;;2.85;1.80;;;;;;;28.00;29.01;97960.06;4893770;28;20655;-74
2022/08/10 07:54:01;;;;;;;2.13;1.80;;;;;;;28.28;29.09;97965.44;4909186;28;20203;-75
2022/08/10 07:56:29;;;;;;;3.53;1.83;;;;;;;28.03;29.29;97964.75;4909531;28;20202;-74
2022/08/10 07:59:05;;;;;;;2.13;1.52;;;;;;;28.45;28.74;97966.25;4926916;28;20715;-74
2022/08/10 08:01:33;;;;;;;2.08;1.88;;;;;;;28.49;28.53;97967.88;4909154;28;20198;-74
2022/08/10 08:04:00;;;;;;;3.40;2.10;;;;;;;28.69;28.37;97960.00;4879099;28;20258;-74
2022/08/10 08:06:27;;;;;;;2.00;1.80;;;;;;;28.94;27.86;97955.25;4913020;28;20241;-74
2022/08/10 08:08:52;;;;;;;2.30;1.52;;;;;;;28.43;28.70;97963.13;4912666;28;20698;-74
2022/08/10 08:11:18;;;;;;;1.70;1.60;;;;;;;28.95;28.07;97959.50;4896923;28;20260;-74
2022/08/10 08:13:44;;;;;;;1.83;1.60;;;;;;;29.39;27.62;97958.59;4913065;28;20285;-74
2022/08/10 08:16:10;;;;;;;2.15;1.40;;;;;;;29.84;26.42;97962.66;4896989;28;20293;-74
2022/08/10 08:18:36;;;;;;;3.15;1.63;;;;;;;29.84;27.11;97957.28;4913041;28;20285;-74
2022/08/10 08:21:02;;;;;;;1.67;1.58;;;;;;;29.89;26.43;97962.38;4896462;28;20287;-74
2022/08/10 08:23:28;;;;;;;2.72;1.33;;;;;;;29.92;25.38;97960.88;4913065;28;20197;-74
2022/08/10 08:25:54;;;;;;;2.33;1.40;;;;;;;30.42;25.21;97970.69;4896756;28;20569;-75
2022/08/10 08:28:20;;;;;;;1.65;1.27;;;;;;;30.67;24.95;97970.34;4912773;28;20103;-74
2022/08/10 08:30:46;;;;;;;1.75;1.65;;;;;;;30.93;24.75;97952.72;4880533;28;20710;-74
2022/08/10 08:33:12;;;;;;;2.30;1.50;;;;;;;31.10;24.09;97957.66;4912472;28;20664;-74
2022/08/10 08:35:39;;;;;;;2.28;1.48;;;;;;;30.97;23.92;97948.97;4880778;28;20205;-75
2022/08/10 08:38:04;;;;;;;1.40;1.30;;;;;;;30.64;24.10;97960.34;4912679;28;20277;-74
2022/08/10 08:40:32;;;;;;;1.83;1.50;;;;;;;30.81;24.47;97951.00;4896062;28;20179;-74
2022/08/10 08:43:08;;;;;;;1.55;1.40;;;;;;;30.83;24.47;97956.00;4896630;28;20330;-74
2022/08/10 08:45:55;;;;;;;2.35;1.42;;;;;;;31.52;23.63;97951.34;4896123;28;20553;-75
2022/08/10 08:48:52;;;;;;;1.30;1.20;;;;;;;31.71;22.71;97946.97;4911867;28;20191;-75
2022/08/10 08:51:45;;;;;;;1.27;1.17;;;;;;;31.54;23.43;97943.66;4930097;28;20748;-74
2022/08/10 08:54:48;;;;;;;1.80;1.20;;;;;;;31.80;23.01;97955.53;4912430;28;20190;-75
2022/08/10 08:57:35;;;;;;;1.80;1.70;;;;;;;31.81;23.07;97957.09;4930340;28;20355;-74
2022/08/10 09:00:24;;;;;;;1.73;1.40;;;;;;;31.70;23.05;97953.47;4911999;28;20613;-74
2022/08/10 09:03:11;;;;;;;2.35;1.23;;;;;;;31.99;22.55;97948.44;4919236;28;20206;-75
2022/08/10 09:05:55;;;;;;;1.67;1.27;;;;;;;31.72;22.75;97951.19;4911953;28;20166;-74
2022/08/10 09:08:58;;;;;;;1.73;1.40;;;;;;;31.23;23.36;97949.38;4911966;28;20195;-74
2022/08/10 09:11:45;;;;;;;2.40;1.70;;;;;;;31.40;23.18;97948.84;4929715;28;20198;-74
2022/08/10 09:14:14;;;;;;;1.40;1.30;;;;;;;31.63;23.07;97942.63;4929809;28;20254;-74
2022/08/10 09:16:51;;;;;;;2.95;1.40;;;;;;;32.24;22.07;97941.44;4929818;28;20280;-75
2022/08/10 09:19:38;;;;;;;3.13;1.25;;;;;;;32.39;21.68;97944.25;4911020;28;20174;-74
2022/08/10 09:22:24;;;;;;;2.55;1.63;;;;;;;32.66;20.54;97943.00;4929996;28;20208;-75
2022/08/10 09:24:58;;;;;;;4.60;1.50;;;;;;;33.17;20.71;97946.09;4911466;28;20656;-74
2022/08/10 09:27:44;;;;;;;1.70;1.17;;;;;;;33.41;20.88;97934.66;4895919;28;20205;-75
2022/08/10 09:30:14;;;;;;;3.20;1.25;;;;;;;33.25;20.71;97933.44;4911193;28;20246;-74
2022/08/10 09:32:47;;;;;;;3.08;1.60;;;;;;;32.55;20.73;97936.72;4895734;28;20730;-74
2022/08/10 09:35:26;;;;;;;3.95;1.50;;;;;;;31.78;21.20;97935.50;4929534;28;20226;-75
2022/08/10 09:38:15;;;;;;;2.38;1.60;;;;;;;31.70;21.35;97934.63;4895065;28;20190;-75
2022/08/10 09:40:48;;;;;;;3.65;1.73;;;;;;;31.69;21.08;97941.16;4895294;28;20163;-74
2022/08/10 09:43:51;;;;;;;2.92;1.60;;;;;;;31.79;21.05;97929.75;4911604;28;20277;-74
2022/08/10 09:46:21;;;;;;;2.65;1.30;;;;;;;31.87;20.99;97936.75;4929381;28;20727;-75
2022/08/10 09:48:46;;;;;;;2.58;1.48;;;;;;;32.36;20.71;97928.84;4910800;28;20275;-74
2022/08/10 09:51:23;;;;;;;2.13;1.70;;;;;;;32.85;20.40;97931.22;4911052;28;20365;-74
2022/08/10 09:53:59;;;;;;;2.08;1.80;;;;;;;32.22;20.47;97926.78;4911438;28;20245;-74
2022/08/10 09:56:28;;;;;;;1.70;1.60;;;;;;;32.36;21.04;97928.84;4879254;28;20662;-74
2022/08/10 09:59:13;;;;;;;3.47;1.70;;;;;;;32.95;20.45;97921.63;4894809;28;20297;-74
2022/08/10 10:02:10;;;;;;;2.95;1.40;;;;;;;33.46;20.31;97925.44;4929269;28;20192;-75
2022/08/10 10:04:42;;;;;;;1.67;1.58;;;;;;;33.09;20.16;97923.69;4895048;28;20183;-74
2022/08/10 10:07:09;;;;;;;1.70;1.55;;;;;;;32.45;19.95;97923.91;4895234;28;20273;-75
2022/08/10 10:09:41;;;;;;;2.30;2.10;;;;;;;31.63;21.58;97929.16;4878485;28;20702;-75
2022/08/10 10:12:22;;;;;;;2.95;1.30;;;;;;;31.25;22.21;97920.94;4911152;28;20191;-75
2022/08/10 10:15:19;;;;;;;1.92;1.73;;;;;;;30.73;22.68;97920.53;4910644;28;20106;-75
2022/08/10 10:18:09;;;;;;;2.08;1.48;;;;;;;30.47;23.14;97920.47;4870123;28;20253;-75
2022/08/10 10:21:06;;;;;;;3.50;1.70;;;;;;;31.25;22.52;97914.78;4894086;28;20361;-74
2022/08/10 10:23:56;;;;;;;2.67;1.77;;;;;;;31.66;21.35;97909.59;4892992;28;20148;-75
2022/08/10 10:26:43;;;;;;;2.45;1.70;;;;;;;30.71;22.39;97916.63;4908726;28;20794;-75
2022/08/10 10:29:28;;;;;;;2.13;1.88;;;;;;;31.22;22.38;97902.84;4893941;28;20246;-74
2022/08/10 10:31:57;;;;;;;4.85;1.60;;;;;;;32.16;21.68;97901.31;4910399;28;20179;-74
2022/08/10 10:34:29;;;;;;;2.17;1.50;;;;;;;32.60;20.80;97898.66;4910485;28;20652;-74
2022/08/10 10:36:56;;;;;;;2.63;1.75;;;;;;;33.02;21.09;97892.03;4928331;28;20260;-74
2022/08/10 10:39:23;;;;;;;1.67;1.35;;;;;;;33.01;20.63;97892.41;4894353;28;20189;-75
2022/08/10 10:42:26;;;;;;;2.15;1.70;;;;;;;32.38;21.26;97902.28;4894313;28;20220;-74
2022/08/10 10:44:59;;;;;;;2.30;1.60;;;;;;;31.19;22.18;97895.50;4917558;28;20664;-74
2022/08/10 10:47:50;;;;;;;1.60;1.50;;;;;;;31.53;21.85;97885.59;4894796;28;20171;-74
2022/08/10 10:50:53;;;;;;;1.90;1.67;;;;;;;32.42;20.52;97897.69;4880374;28;20675;-74
2022/08/10 10:53:48;;;;;;;2.40;1.80;;;;;;;32.15;20.57;97878.19;4911533;28;20163;-75
2022/08/10 10:56:52;;;;;;;2.88;1.77;;;;;;;32.42;20.51;97890.41;4923521;28;20206;-74
2022/08/10 10:59:26;;;;;;;1.60;1.50;;;;;;;32.99;19.91;97881.22;4909826;28;20286;-74
2022/08/10 11:02:31;;;;;;;4.57;1.95;;;;;;;33.12;19.46;97879.72;4894103;28;20292;-74
2022/08/10 11:05:21;;;;;;;1.75;1.65;;;;;;;33.64;18.85;97884.22;4910001;28;20324;-74
2022/08/10 11:08:00;;;;;;;2.15;1.70;;;;;;;34.43;18.56;97866.28;4893509;28;20198;-74
2022/08/10 11:10:50;;;;;;;1.95;1.70;;;;;;;34.77;18.65;97876.75;4893446;28;20273;-75
2022/08/10 11:13:46;;;;;;;3.33;1.77;;;;;;;34.98;17.29;97856.97;4909992;28;20262;-74
2022/08/10 11:16:28;;;;;;;5.43;2.13;;;;;;;34.45;18.10;97890.25;4909692;28;20175;-76
2022/08/10 11:19:25;;;;;;;2.45;1.90;;;;;;;34.08;18.25;97861.59;4893847;28;20719;-75
2022/08/10 11:22:13;;;;;;;2.47;1.95;;;;;;;34.21;18.62;97857.41;4893590;28;20213;-75
2022/08/10 11:25:08;;;;;;;2.80;1.90;;;;;;;34.19;18.16;97856.19;4909620;28;20163;-76
2022/08/10 11:27:49;;;;;;;2.83;1.90;;;;;;;33.54;18.62;97856.81;4877883;28;20206;-75
2022/08/10 11:30:21;;;;;;;2.20;2.10;;;;;;;33.83;19.29;97862.34;4877285;28;20175;-75
2022/08/10 11:32:49;;;;;;;2.10;1.75;;;;;;;33.03;19.16;97874.66;4909765;28;20244;-75
2022/08/10 11:35:29;;;;;;;1.65;1.55;;;;;;;33.13;19.33;97870.50;4927201;28;20244;-75
2022/08/10 11:38:02;;;;;;;2.22;1.70;;;;;;;32.95;19.62;97864.97;4908894;28;20272;-76
2022/08/10 11:40:57;;;;;;;1.93;1.73;;;;;;;33.09;19.32;97858.91;4909169;28;20754;-75
2022/08/10 11:43:25;;;;;;;;;;;;;;;32.65;19.25;97846.31;4904582;28;20300;-75
2022/08/10 11:46:22;;;;;;;2.33;1.70;;;;;;;33.23;19.14;97858.25;4910001;28;20190;-75
2022/08/10 11:49:09;;;;;;;2.58;1.83;;;;;;;32.20;20.07;97854.41;4892161;28;20640;-75
2022/08/10 11:51:42;;;;;;;2.22;1.80;;;;;;;32.59;19.92;97845.84;4877387;28;20668;-75
2022/08/10 11:54:26;;;;;;;1.88;1.77;;;;;;;32.91;19.01;97850.72;4909355;28;20171;-75
2022/08/10 11:56:53;;;;;;;1.98;1.60;;;;;;;32.63;19.40;97843.97;4893738;28;20189;-76